createdAt,value
2023-05-24T00:00:41.224Z,14.38
2023-05-24T00:03:27.025Z,14.33
2023-05-24T00:05:57.255Z,14.28
2023-05-24T00:08:27.445Z,14.31
2023-05-24T00:10:57.272Z,14.27
2023-05-24T00:13:29.087Z,14.27
2023-05-24T00:15:59.169Z,14.22
2023-05-24T00:18:31.524Z,14.22
2023-05-24T00:21:01.369Z,14.16
2023-05-24T00:23:31.587Z,14.03
2023-05-24T00:26:01.664Z,14.09
2023-05-24T00:28:33.374Z,14.16
2023-05-24T00:31:03.255Z,14.33
2023-05-24T00:33:33.592Z,14.43
2023-05-24T00:36:03.461Z,14.47
2023-05-24T00:38:33.656Z,14.40
2023-05-24T00:41:03.596Z,14.37
2023-05-24T00:43:35.911Z,14.35
2023-05-24T00:46:15.736Z,14.33
2023-05-24T00:48:46.422Z,14.41
2023-05-24T00:51:16.690Z,14.46
2023-05-24T00:53:47.658Z,14.31
2023-05-24T00:56:18.201Z,14.30
2023-05-24T00:58:50.804Z,14.25
2023-05-24T01:01:20.776Z,14.21
2023-05-24T01:03:51.788Z,14.19
2023-05-24T01:06:22.005Z,14.14
2023-05-24T01:09:12.244Z,14.10
2023-05-24T01:11:48.285Z,14.06
2023-05-24T01:14:23.176Z,14.07
2023-05-24T01:16:56.654Z,14.05
2023-05-24T01:19:45.775Z,14.05
2023-05-24T01:22:26.145Z,14.03
2023-05-24T01:25:02.567Z,14.00
2023-05-24T01:27:35.343Z,14.00
2023-05-24T01:30:06.393Z,14.02
2023-05-24T01:32:36.129Z,14.01
2023-05-24T01:35:06.787Z,14.00
2023-05-24T01:37:36.511Z,13.97
2023-05-24T01:40:07.888Z,13.95
2023-05-24T01:42:44.410Z,13.95
2023-05-24T01:45:18.357Z,14.01
2023-05-24T01:48:00.547Z,14.14
2023-05-24T01:50:34.296Z,14.15
2023-05-24T01:53:06.568Z,14.20
2023-05-24T01:55:37.487Z,14.19
2023-05-24T01:58:09.887Z,14.22
2023-05-24T02:00:40.784Z,14.26
2023-05-24T02:03:11.236Z,14.18
2023-05-24T02:05:41.502Z,14.20
2023-05-24T02:08:11.266Z,14.14
2023-05-24T02:10:42.044Z,14.14
2023-05-24T02:13:13.393Z,14.07
2023-05-24T02:15:43.582Z,14.08
2023-05-24T02:18:18.883Z,14.09
2023-05-24T02:20:49.053Z,14.09
2023-05-24T02:23:19.310Z,13.94
2023-05-24T02:25:49.519Z,13.94
2023-05-24T02:28:20.732Z,13.92
2023-05-24T02:30:51.596Z,13.91
2023-05-24T02:33:21.458Z,13.92
2023-05-24T02:35:51.657Z,13.90
2023-05-24T02:38:21.414Z,13.86
2023-05-24T02:40:51.788Z,13.83
2023-05-24T02:43:23.261Z,13.86
2023-05-24T02:45:53.449Z,13.84
2023-05-24T02:48:23.427Z,13.83
2023-05-24T02:50:53.705Z,13.82
2023-05-24T02:53:23.534Z,13.81
2023-05-24T02:55:53.924Z,13.80
2023-05-24T02:58:25.247Z,13.76
2023-05-24T03:00:56.990Z,13.73
2023-05-24T03:03:26.946Z,13.79
2023-05-24T03:05:57.432Z,13.95
2023-05-24T03:08:27.489Z,13.96
2023-05-24T03:10:57.645Z,14.05
2023-05-24T03:13:29.001Z,14.00
2023-05-24T03:15:59.743Z,13.99
2023-05-24T03:18:29.675Z,14.01
2023-05-24T03:20:59.912Z,14.02
2023-05-24T03:23:29.700Z,14.02
2023-05-24T03:25:59.840Z,14.01
2023-05-24T03:28:34.426Z,13.98
2023-05-24T03:31:05.439Z,13.92
2023-05-24T03:33:35.859Z,13.89
2023-05-24T03:36:06.860Z,13.92
2023-05-24T03:38:36.928Z,13.96
2023-05-24T03:41:08.133Z,13.97
2023-05-24T03:43:39.371Z,13.98
2023-05-24T03:46:13.209Z,14.00
2023-05-24T03:48:44.580Z,14.05
2023-05-24T03:51:15.969Z,14.08
2023-05-24T03:53:45.886Z,14.08
2023-05-24T03:56:16.268Z,14.11
2023-05-24T03:58:48.567Z,14.15
2023-05-24T04:01:32.147Z,14.20
2023-05-24T04:04:04.950Z,14.17
2023-05-24T04:06:37.146Z,14.24
2023-05-24T04:09:08.055Z,14.32
2023-05-24T04:11:38.405Z,14.45
2023-05-24T04:14:09.725Z,14.52
2023-05-24T04:16:41.908Z,14.67
2023-05-24T04:19:11.745Z,14.81
2023-05-24T04:21:42.088Z,15.01
2023-05-24T04:24:11.919Z,15.14
2023-05-24T04:26:42.196Z,15.18
2023-05-24T04:29:13.521Z,15.18
2023-05-24T04:31:45.236Z,15.14
2023-05-24T04:34:15.129Z,15.15
2023-05-24T04:36:45.665Z,15.16
2023-05-24T04:39:16.082Z,15.12
2023-05-24T04:41:47.119Z,15.10
2023-05-24T04:44:18.707Z,15.08
2023-05-24T04:46:49.167Z,15.05
2023-05-24T04:49:18.939Z,15.07
2023-05-24T04:51:49.215Z,15.13
2023-05-24T04:54:19.069Z,15.11
2023-05-24T04:56:49.383Z,15.10
2023-05-24T04:59:20.807Z,15.17
2023-05-24T05:01:51.043Z,15.22
2023-05-24T05:04:21.176Z,15.27
2023-05-24T05:06:51.414Z,15.25
2023-05-24T05:09:21.586Z,15.21
2023-05-24T05:11:52.184Z,15.20
2023-05-24T05:14:23.483Z,15.17
2023-05-24T05:16:53.802Z,15.19
2023-05-24T05:19:23.776Z,15.19
2023-05-24T05:21:53.996Z,15.16
2023-05-24T05:24:23.746Z,15.21
2023-05-24T05:26:54.024Z,15.19
2023-05-24T05:29:25.939Z,15.18
2023-05-24T05:31:56.180Z,15.27
2023-05-24T05:34:26.172Z,15.24
2023-05-24T05:36:56.283Z,15.32
2023-05-24T05:39:26.021Z,15.42
2023-05-24T05:41:56.405Z,15.41
2023-05-24T05:44:27.713Z,15.42
2023-05-24T05:46:57.887Z,15.49
2023-05-24T05:49:27.903Z,15.62
2023-05-24T05:51:58.369Z,15.59
2023-05-24T05:54:28.866Z,15.64
2023-05-24T05:57:01.386Z,15.67
2023-05-24T05:59:36.429Z,15.76
2023-05-24T06:02:07.725Z,15.82
2023-05-24T06:04:37.706Z,15.87
2023-05-24T06:07:08.107Z,15.95
2023-05-24T06:09:37.980Z,16.08
2023-05-24T06:12:08.308Z,16.04
2023-05-24T06:14:39.905Z,16.08
2023-05-24T06:17:10.196Z,16.16
2023-05-24T06:19:40.029Z,16.35
2023-05-24T06:22:10.266Z,16.60
2023-05-24T06:24:40.310Z,16.62
2023-05-24T06:27:10.534Z,16.57
2023-05-24T06:29:41.942Z,16.80
2023-05-24T06:32:12.174Z,17.02
2023-05-24T06:34:42.412Z,17.24
2023-05-24T06:37:15.493Z,17.62
2023-05-24T06:39:45.437Z,18.11
2023-05-24T06:42:15.937Z,18.29
2023-05-24T06:44:50.432Z,18.23
2023-05-24T06:47:21.144Z,18.40
2023-05-24T06:49:51.554Z,18.76
2023-05-24T06:52:22.157Z,18.91
2023-05-24T06:54:52.491Z,18.70
2023-05-24T06:57:23.326Z,18.48
2023-05-24T06:59:54.657Z,18.35
2023-05-24T07:02:27.785Z,18.48
2023-05-24T07:04:58.563Z,18.93
2023-05-24T07:07:28.774Z,18.92
2023-05-24T07:09:58.528Z,19.06
2023-05-24T07:12:28.795Z,18.83
2023-05-24T07:15:00.046Z,18.73
2023-05-24T07:17:30.195Z,18.91
2023-05-24T07:20:00.213Z,19.10
2023-05-24T07:22:32.033Z,19.11
2023-05-24T07:25:01.817Z,19.07
2023-05-24T07:27:32.405Z,19.16
2023-05-24T07:30:03.873Z,19.43
2023-05-24T07:32:34.491Z,19.29
2023-05-24T07:35:04.365Z,19.36
2023-05-24T07:37:34.536Z,19.64
2023-05-24T07:40:05.765Z,19.84
2023-05-24T07:42:36.675Z,20.45
2023-05-24T07:45:09.327Z,20.74
2023-05-24T07:47:39.474Z,21.05
2023-05-24T07:50:09.796Z,20.98
2023-05-24T07:52:40.312Z,20.83
2023-05-24T07:55:10.623Z,21.05
2023-05-24T07:57:40.886Z,21.16
2023-05-24T08:00:15.181Z,20.81
2023-05-24T08:02:46.765Z,21.15
2023-05-24T08:05:17.110Z,21.43
2023-05-24T08:07:47.566Z,21.36
2023-05-24T08:10:17.587Z,21.05
2023-05-24T08:12:48.148Z,21.02
2023-05-24T08:15:19.663Z,20.90
2023-05-24T08:17:50.002Z,21.17
2023-05-24T08:20:20.105Z,21.20
2023-05-24T08:22:50.622Z,21.24
2023-05-24T08:25:21.383Z,21.55
2023-05-24T08:27:52.414Z,22.17
2023-05-24T08:30:24.527Z,22.14
2023-05-24T08:32:54.917Z,21.61
2023-05-24T08:35:25.073Z,21.80
2023-05-24T08:37:55.262Z,21.78
2023-05-24T08:40:25.770Z,21.86
2023-05-24T08:42:57.526Z,21.69
2023-05-24T08:45:31.642Z,21.73
2023-05-24T08:48:03.607Z,21.55
2023-05-24T08:50:34.136Z,21.43
2023-05-24T08:53:04.396Z,21.26
2023-05-24T08:55:34.829Z,21.25
2023-05-24T08:58:05.669Z,21.26
2023-05-24T09:00:37.069Z,21.17
2023-05-24T09:03:08.224Z,21.08
2023-05-24T09:05:38.859Z,20.92
2023-05-24T09:08:10.350Z,21.23
2023-05-24T09:10:53.192Z,21.50
2023-05-24T09:13:26.203Z,21.50
2023-05-24T09:15:57.806Z,21.23
2023-05-24T09:18:28.341Z,21.29
2023-05-24T09:20:58.405Z,21.28
2023-05-24T09:23:28.591Z,21.23
2023-05-24T09:25:59.050Z,21.48
2023-05-24T09:28:34.073Z,21.85
2023-05-24T09:31:08.102Z,21.92
2023-05-24T09:33:40.409Z,22.11
2023-05-24T09:36:11.023Z,22.53
2023-05-24T09:38:41.727Z,22.35
2023-05-24T09:41:12.389Z,22.44
2023-05-24T09:43:49.905Z,22.35
2023-05-24T09:46:21.956Z,22.43
2023-05-24T09:48:59.029Z,22.55
2023-05-24T09:51:28.827Z,22.42
2023-05-24T09:53:59.870Z,22.50
2023-05-24T09:56:30.130Z,22.55
2023-05-24T09:59:07.454Z,22.54
2023-05-24T10:01:43.891Z,22.57
2023-05-24T10:04:18.995Z,22.62
2023-05-24T10:06:49.031Z,22.81
2023-05-24T10:09:19.214Z,23.00
2023-05-24T10:11:55.991Z,22.73
2023-05-24T10:14:29.794Z,22.98
2023-05-24T10:17:11.829Z,23.09
2023-05-24T10:19:42.264Z,23.07
2023-05-24T10:22:12.599Z,22.77
2023-05-24T10:24:46.049Z,22.87
2023-05-24T10:27:17.841Z,22.25
2023-05-24T10:29:55.952Z,22.31
2023-05-24T10:32:32.017Z,22.64
2023-05-24T10:35:02.736Z,22.67
2023-05-24T10:37:33.353Z,22.79
2023-05-24T10:40:04.454Z,22.75
2023-05-24T10:42:34.391Z,22.86
2023-05-24T10:45:17.989Z,22.89
2023-05-24T10:47:49.444Z,22.67
2023-05-24T10:50:19.848Z,22.70
2023-05-24T10:52:50.472Z,22.90
2023-05-24T10:55:21.112Z,22.90
2023-05-24T10:57:51.183Z,22.54
2023-05-24T11:00:39.142Z,22.83
2023-05-24T11:03:11.387Z,22.55
2023-05-24T11:05:55.988Z,22.68
2023-05-24T11:08:27.842Z,22.91
2023-05-24T11:13:52.042Z,23.15
2023-05-24T11:16:34.899Z,22.49
2023-05-24T11:19:20.771Z,22.80
2023-05-24T11:22:00.038Z,22.89
2023-05-24T11:24:39.944Z,22.99
2023-05-24T11:27:14.101Z,22.54
2023-05-24T11:29:47.094Z,22.36
2023-05-24T11:32:19.919Z,22.42
2023-05-24T11:34:52.033Z,22.46
2023-05-24T11:37:34.919Z,22.61
2023-05-24T11:40:13.470Z,22.78
2023-05-24T11:42:44.635Z,22.98
2023-05-24T11:45:15.963Z,22.64
2023-05-24T11:47:46.481Z,22.55
2023-05-24T11:50:26.641Z,22.87
2023-05-24T11:53:03.886Z,23.08
2023-05-24T11:55:33.755Z,22.87
2023-05-24T11:58:06.444Z,23.28
2023-05-24T12:00:36.763Z,23.10
2023-05-24T12:03:08.938Z,23.20
2023-05-24T12:05:40.928Z,23.42
2023-05-24T12:08:12.945Z,23.75
2023-05-24T12:10:44.216Z,23.77
2023-05-24T12:13:24.420Z,23.97
2023-05-24T12:15:56.489Z,23.98
2023-05-24T12:18:27.817Z,23.68
2023-05-24T12:20:59.986Z,24.04
2023-05-24T12:23:32.364Z,24.19
2023-05-24T12:26:02.782Z,24.17
2023-05-24T12:28:40.294Z,24.53
2023-05-24T12:31:10.699Z,24.71
2023-05-24T12:33:41.180Z,24.44
2023-05-24T12:36:13.027Z,24.59
2023-05-24T12:38:44.100Z,24.71
2023-05-24T12:41:15.221Z,24.85
2023-05-24T12:43:45.781Z,24.75
2023-05-24T12:46:15.849Z,24.82
2023-05-24T12:48:48.081Z,24.71
2023-05-24T12:51:19.407Z,24.53
2023-05-24T12:53:50.706Z,24.56
2023-05-24T12:56:20.640Z,24.74
2023-05-24T12:58:50.793Z,24.82
2023-05-24T13:01:20.811Z,24.48
2023-05-24T13:03:51.369Z,24.15
2023-05-24T13:06:22.709Z,24.48
2023-05-24T13:08:53.144Z,24.72
2023-05-24T13:11:25.441Z,24.67
2023-05-24T13:13:55.787Z,24.81
2023-05-24T13:16:26.045Z,24.86
2023-05-24T13:18:59.507Z,24.46
2023-05-24T13:21:31.983Z,24.19
2023-05-24T13:24:02.250Z,24.03
2023-05-24T13:26:36.106Z,24.32
2023-05-24T13:29:32.399Z,24.60
2023-05-24T13:31:57.913Z,24.72
2023-05-24T13:34:28.456Z,24.71
2023-05-24T13:37:00.402Z,24.53
2023-05-24T13:39:30.604Z,24.79
2023-05-24T13:42:01.402Z,24.65
2023-05-24T13:44:32.598Z,24.17
2023-05-24T13:47:03.035Z,23.92
2023-05-24T13:49:33.490Z,23.90
2023-05-24T13:52:04.771Z,24.06
2023-05-24T13:54:34.993Z,24.27
2023-05-24T13:57:05.551Z,24.11
2023-05-24T13:59:35.761Z,24.20
2023-05-24T14:02:05.756Z,24.71
2023-05-24T14:04:35.996Z,24.15
2023-05-24T14:07:08.770Z,23.93
2023-05-24T14:09:40.414Z,23.83
2023-05-24T14:12:11.444Z,24.24
2023-05-24T14:14:59.709Z,23.70
2023-05-24T14:17:30.210Z,23.63
2023-05-24T14:20:00.810Z,23.90
2023-05-24T14:22:34.212Z,24.42
2023-05-24T14:25:04.546Z,24.45
2023-05-24T14:27:34.353Z,24.57
2023-05-24T14:30:04.614Z,24.70
2023-05-24T14:32:34.480Z,24.35
2023-05-24T14:35:04.619Z,24.15
2023-05-24T14:37:35.902Z,23.67
2023-05-24T14:40:07.179Z,23.65
2023-05-24T14:42:38.106Z,23.83
2023-05-24T14:45:09.008Z,23.61
2023-05-24T14:47:39.188Z,23.28
2023-05-24T14:50:10.676Z,23.40
2023-05-24T14:52:41.988Z,23.43
2023-05-24T14:55:12.272Z,23.46
2023-05-24T14:57:42.620Z,23.34
2023-05-24T15:00:15.253Z,23.23
2023-05-24T15:02:45.205Z,23.00
2023-05-24T15:05:16.511Z,22.87
2023-05-24T15:07:49.813Z,23.08
2023-05-24T15:10:20.329Z,22.79
2023-05-24T15:12:52.390Z,22.76
2023-05-24T15:15:23.446Z,22.94
2023-05-24T15:17:59.477Z,22.97
2023-05-24T15:20:35.751Z,22.95
2023-05-24T15:23:11.014Z,22.96
2023-05-24T15:25:43.573Z,22.80
2023-05-24T15:28:15.057Z,22.61
2023-05-24T15:30:46.596Z,22.35
2023-05-24T15:33:18.993Z,22.30
2023-05-24T15:35:49.433Z,22.14
2023-05-24T15:38:21.199Z,22.09
2023-05-24T15:40:52.419Z,21.96
2023-05-24T15:43:22.634Z,22.02
2023-05-24T15:45:57.472Z,22.06
2023-05-24T15:48:28.888Z,22.06
2023-05-24T15:51:53.615Z,22.09
2023-05-24T15:53:50.979Z,21.99
2023-05-24T15:56:21.793Z,22.12
2023-05-24T15:58:51.833Z,22.12
2023-05-24T16:01:22.057Z,22.09
2023-05-24T16:03:51.975Z,21.92
2023-05-24T16:06:22.310Z,21.98
2023-05-24T16:08:53.659Z,21.99
2023-05-24T16:11:23.955Z,21.83
2023-05-24T16:13:54.588Z,21.76
2023-05-24T16:16:24.856Z,21.48
2023-05-24T16:18:58.073Z,21.15
2023-05-24T16:21:29.436Z,21.00
2023-05-24T16:24:02.018Z,20.96
2023-05-24T16:26:32.676Z,20.91
2023-05-24T16:29:02.861Z,20.90
2023-05-24T16:31:34.472Z,20.95
2023-05-24T16:34:04.646Z,20.69
2023-05-24T16:36:35.099Z,20.68
2023-05-24T16:39:06.644Z,20.69
2023-05-24T16:41:37.893Z,20.72
2023-05-24T16:44:08.621Z,20.85
2023-05-24T16:46:39.064Z,20.78
2023-05-24T16:49:09.125Z,20.87
2023-05-24T16:51:39.821Z,20.76
2023-05-24T16:54:11.155Z,20.77
2023-05-24T16:56:41.482Z,20.67
2023-05-24T16:59:11.683Z,20.66
2023-05-24T17:01:42.378Z,20.68
2023-05-24T17:04:12.488Z,20.65
2023-05-24T17:06:43.574Z,20.62
2023-05-24T17:09:16.143Z,20.68
2023-05-24T17:11:46.885Z,20.69
2023-05-24T17:14:17.889Z,20.68
2023-05-24T17:16:48.324Z,20.54
2023-05-24T17:19:19.716Z,20.50
2023-05-24T17:21:50.274Z,20.46
2023-05-24T17:24:22.712Z,20.60
2023-05-24T17:26:53.345Z,20.57
2023-05-24T17:29:24.186Z,20.61
2023-05-24T17:31:55.017Z,20.62
2023-05-24T17:34:24.893Z,20.78
2023-05-24T17:36:55.037Z,20.71
2023-05-24T17:39:27.014Z,20.72
2023-05-24T17:41:57.525Z,20.71
2023-05-24T17:44:27.709Z,20.76
2023-05-24T17:47:00.555Z,20.78
2023-05-24T17:49:32.101Z,20.79
2023-05-24T17:52:02.725Z,20.80
2023-05-24T17:54:34.409Z,20.74
2023-05-24T17:57:05.084Z,20.80
2023-05-24T17:59:35.529Z,20.80
2023-05-24T18:02:07.393Z,20.71
2023-05-24T18:04:37.453Z,20.70
2023-05-24T18:07:09.112Z,20.56
2023-05-24T18:09:41.219Z,20.01
2023-05-24T18:12:12.064Z,19.83
2023-05-24T18:14:45.253Z,19.78
2023-05-24T18:17:16.808Z,19.53
2023-05-24T18:19:47.497Z,19.32
2023-05-24T18:22:20.681Z,19.20
2023-05-24T18:24:52.718Z,19.11
2023-05-24T18:27:27.029Z,19.07
2023-05-24T18:29:58.017Z,19.07
2023-05-24T18:32:28.938Z,18.99
2023-05-24T18:35:04.058Z,18.91
2023-05-24T18:37:36.286Z,18.88
2023-05-24T18:40:09.186Z,18.97
2023-05-24T18:42:39.723Z,18.80
2023-05-24T18:45:12.270Z,18.71
2023-05-24T18:47:45.867Z,18.53
2023-05-24T18:50:23.608Z,18.38
2023-05-24T18:52:55.400Z,18.44
2023-05-24T18:55:26.911Z,18.46
2023-05-24T18:57:59.707Z,18.51
2023-05-24T19:00:32.107Z,18.65
2023-05-24T19:03:03.378Z,18.66
2023-05-24T19:05:34.440Z,18.50
2023-05-24T19:08:05.287Z,18.41
2023-05-24T19:10:36.705Z,18.39
2023-05-24T19:13:09.496Z,18.29
2023-05-24T19:15:40.024Z,18.19
2023-05-24T19:18:11.056Z,18.06
2023-05-24T19:20:41.082Z,17.99
2023-05-24T19:23:11.661Z,18.02
2023-05-24T19:25:44.265Z,18.08
2023-05-24T19:28:17.487Z,18.11
2023-05-24T19:30:47.291Z,17.93
2023-05-24T19:33:17.506Z,17.87
2023-05-24T19:35:47.668Z,17.82
2023-05-24T19:38:18.607Z,17.71
2023-05-24T19:40:55.919Z,17.70
2023-05-24T19:43:29.455Z,17.62
2023-05-24T19:46:00.195Z,17.62
2023-05-24T19:48:30.512Z,17.57
2023-05-24T19:51:00.259Z,17.45
2023-05-24T19:53:31.615Z,17.56
2023-05-24T19:56:03.475Z,17.70
2023-05-24T19:58:34.105Z,17.71
2023-05-24T20:01:03.906Z,17.67
2023-05-24T20:03:34.489Z,17.64
2023-05-24T20:06:04.975Z,17.62
2023-05-24T20:08:36.785Z,17.54
2023-05-24T20:11:09.061Z,17.34
2023-05-24T20:13:39.572Z,17.31
2023-05-24T20:16:09.585Z,17.21
2023-05-24T20:18:40.667Z,17.24
2023-05-24T20:21:10.632Z,17.26
2023-05-24T20:23:40.927Z,17.21
2023-05-24T20:26:14.895Z,17.09
2023-05-24T20:28:45.289Z,17.04
2023-05-24T20:31:15.381Z,16.98
2023-05-24T20:33:46.579Z,16.94
2023-05-24T20:36:17.188Z,16.87
2023-05-24T20:38:48.058Z,16.79
2023-05-24T20:41:19.305Z,16.71
2023-05-24T20:43:51.737Z,16.63
2023-05-24T20:46:22.976Z,16.59
2023-05-24T20:48:54.072Z,16.56
2023-05-24T20:51:24.955Z,16.39
2023-05-24T20:53:55.154Z,16.40
2023-05-24T20:56:26.538Z,16.34
2023-05-24T20:59:00.476Z,16.34
2023-05-24T21:01:30.333Z,16.24
2023-05-24T21:04:00.624Z,16.19
2023-05-24T21:06:33.143Z,16.18
2023-05-24T21:09:04.178Z,16.10
2023-05-24T21:11:35.479Z,16.00
2023-05-24T21:14:05.825Z,15.97
2023-05-24T21:16:35.673Z,15.88
2023-05-24T21:19:05.888Z,15.83
2023-05-24T21:21:37.968Z,15.76
2023-05-24T21:24:08.221Z,15.70
2023-05-24T21:26:39.385Z,15.71
2023-05-24T21:29:11.714Z,15.53
2023-05-24T21:31:41.723Z,15.47
2023-05-24T21:34:12.033Z,15.40
2023-05-24T21:36:41.809Z,15.37
2023-05-24T21:39:11.932Z,15.35
2023-05-24T21:41:43.096Z,15.28
2023-05-24T21:44:13.213Z,15.25
2023-05-24T21:46:43.076Z,15.20
2023-05-24T21:49:13.151Z,15.11
2023-05-24T21:51:42.895Z,15.15
2023-05-24T21:54:12.943Z,15.08
2023-05-24T21:56:44.257Z,15.08
2023-05-24T21:59:15.195Z,15.15
2023-05-24T22:01:45.039Z,15.12
2023-05-24T22:04:15.346Z,15.00
2023-05-24T22:06:46.343Z,15.03
2023-05-24T22:09:16.404Z,15.03
2023-05-24T22:11:47.734Z,14.98
2023-05-24T22:14:17.854Z,14.88
2023-05-24T22:16:47.761Z,14.86
2023-05-24T22:19:22.698Z,14.91
2023-05-24T22:22:01.887Z,14.99
2023-05-24T22:24:32.084Z,14.85
2023-05-24T22:27:03.527Z,14.77
2023-05-24T22:29:33.565Z,14.76
2023-05-24T22:32:03.564Z,14.76
2023-05-24T22:34:33.916Z,14.69
2023-05-24T22:37:03.685Z,14.70
2023-05-24T22:39:33.993Z,14.70
2023-05-24T22:42:05.459Z,14.65
2023-05-24T22:44:35.487Z,14.59
2023-05-24T22:47:05.358Z,14.59
2023-05-24T22:49:36.150Z,14.61
2023-05-24T22:52:07.286Z,14.50
2023-05-24T22:54:37.573Z,14.44
2023-05-24T22:57:08.735Z,14.45
2023-05-24T22:59:38.984Z,14.38
2023-05-24T23:02:08.770Z,14.35
2023-05-24T23:04:38.903Z,14.35
2023-05-24T23:07:08.566Z,14.34
2023-05-24T23:09:38.557Z,14.32
2023-05-24T23:12:10.638Z,14.26
2023-05-24T23:14:41.993Z,14.26
2023-05-24T23:17:13.682Z,14.20
2023-05-24T23:19:46.919Z,14.16
2023-05-24T23:22:18.734Z,14.11
2023-05-24T23:24:49.321Z,14.01
2023-05-24T23:27:20.515Z,13.84
2023-05-24T23:29:50.606Z,13.99
2023-05-24T23:32:20.365Z,13.86
2023-05-24T23:34:50.405Z,13.86
2023-05-24T23:37:20.414Z,13.83
2023-05-24T23:39:50.580Z,13.80
2023-05-24T23:42:21.825Z,13.76
2023-05-24T23:44:51.948Z,13.73
2023-05-24T23:47:21.683Z,13.74
2023-05-24T23:49:52.523Z,13.75
2023-05-24T23:52:22.205Z,13.63
2023-05-24T23:54:52.235Z,13.63
2023-05-24T23:57:25.209Z,13.60
2023-05-24T23:59:55.637Z,13.54
